sensor_id;sensor_type;location;lat;lon;timestamp;P1;durP1;ratioP1;P2;durP2;ratioP2
51082;SDS011;37131;42.694;23.350;2023-08-20T00:00:27;4.25;;;2.17;;
51082;SDS011;37131;42.694;23.350;2023-08-20T00:03:03;3.90;;;2.00;;
51082;SDS011;37131;42.694;23.350;2023-08-20T00:05:35;3.97;;;2.10;;
51082;SDS011;37131;42.694;23.350;2023-08-20T00:08:00;3.10;;;1.67;;
51082;SDS011;37131;42.694;23.350;2023-08-20T00:10:26;5.68;;;2.17;;
51082;SDS011;37131;42.694;23.350;2023-08-20T00:12:51;6.30;;;2.00;;
51082;SDS011;37131;42.694;23.350;2023-08-20T00:15:16;3.88;;;2.08;;
51082;SDS011;37131;42.694;23.350;2023-08-20T00:17:44;4.60;;;2.03;;
51082;SDS011;37131;42.694;23.350;2023-08-20T00:20:10;4.68;;;2.15;;
51082;SDS011;37131;42.694;23.350;2023-08-20T00:22:38;4.20;;;1.90;;
51082;SDS011;37131;42.694;23.350;2023-08-20T00:25:04;6.25;;;2.28;;
51082;SDS011;37131;42.694;23.350;2023-08-20T00:27:30;4.45;;;2.08;;
51082;SDS011;37131;42.694;23.350;2023-08-20T00:29:56;4.70;;;1.90;;
51082;SDS011;37131;42.694;23.350;2023-08-20T00:32:22;5.32;;;2.35;;
51082;SDS011;37131;42.694;23.350;2023-08-20T00:34:48;5.05;;;2.10;;
51082;SDS011;37131;42.694;23.350;2023-08-20T00:37:13;3.38;;;2.05;;
51082;SDS011;37131;42.694;23.350;2023-08-20T00:39:39;4.75;;;2.50;;
51082;SDS011;37131;42.694;23.350;2023-08-20T00:42:04;6.00;;;2.20;;
51082;SDS011;37131;42.694;23.350;2023-08-20T00:44:30;3.17;;;1.95;;
51082;SDS011;37131;42.694;23.350;2023-08-20T00:46:56;3.80;;;2.17;;
51082;SDS011;37131;42.694;23.350;2023-08-20T00:49:22;4.30;;;2.17;;
51082;SDS011;37131;42.694;23.350;2023-08-20T00:51:48;4.05;;;2.05;;
51082;SDS011;37131;42.694;23.350;2023-08-20T00:54:14;3.42;;;2.03;;
51082;SDS011;37131;42.694;23.350;2023-08-20T00:56:40;4.13;;;2.60;;
51082;SDS011;37131;42.694;23.350;2023-08-20T00:59:05;4.35;;;2.15;;
51082;SDS011;37131;42.694;23.350;2023-08-20T01:01:31;3.85;;;2.50;;
51082;SDS011;37131;42.694;23.350;2023-08-20T01:03:56;4.75;;;2.40;;
51082;SDS011;37131;42.694;23.350;2023-08-20T01:12:02;5.80;;;2.40;;
51082;SDS011;37131;42.694;23.350;2023-08-20T01:14:28;6.10;;;2.30;;
51082;SDS011;37131;42.694;23.350;2023-08-20T01:16:54;5.82;;;2.25;;
51082;SDS011;37131;42.694;23.350;2023-08-20T01:19:20;3.90;;;2.20;;
51082;SDS011;37131;42.694;23.350;2023-08-20T01:30:29;3.80;;;2.17;;
51082;SDS011;37131;42.694;23.350;2023-08-20T01:32:56;4.03;;;2.47;;
51082;SDS011;37131;42.694;23.350;2023-08-20T01:35:24;3.47;;;2.22;;
51082;SDS011;37131;42.694;23.350;2023-08-20T01:37:51;3.40;;;2.35;;
51082;SDS011;37131;42.694;23.350;2023-08-20T01:40:16;5.05;;;2.42;;
51082;SDS011;37131;42.694;23.350;2023-08-20T01:42:42;4.28;;;2.35;;
51082;SDS011;37131;42.694;23.350;2023-08-20T01:45:07;4.75;;;2.30;;
51082;SDS011;37131;42.694;23.350;2023-08-20T01:47:33;4.05;;;2.08;;
51082;SDS011;37131;42.694;23.350;2023-08-20T01:49:59;4.22;;;2.30;;
51082;SDS011;37131;42.694;23.350;2023-08-20T01:52:24;5.53;;;2.50;;
51082;SDS011;37131;42.694;23.350;2023-08-20T01:54:50;5.57;;;2.90;;
51082;SDS011;37131;42.694;23.350;2023-08-20T01:57:16;5.13;;;2.33;;
51082;SDS011;37131;42.694;23.350;2023-08-20T01:59:42;5.15;;;2.67;;
51082;SDS011;37131;42.694;23.350;2023-08-20T02:02:07;4.65;;;2.38;;
51082;SDS011;37131;42.694;23.350;2023-08-20T02:04:33;5.03;;;2.47;;
51082;SDS011;37131;42.694;23.350;2023-08-20T02:06:58;5.68;;;2.67;;
51082;SDS011;37131;42.694;23.350;2023-08-20T02:09:24;5.90;;;2.58;;
51082;SDS011;37131;42.694;23.350;2023-08-20T02:11:49;3.78;;;2.35;;
51082;SDS011;37131;42.694;23.350;2023-08-20T02:14:18;5.15;;;2.50;;
51082;SDS011;37131;42.694;23.350;2023-08-20T02:16:43;4.82;;;2.85;;
51082;SDS011;37131;42.694;23.350;2023-08-20T02:19:11;4.50;;;2.50;;
51082;SDS011;37131;42.694;23.350;2023-08-20T02:21:36;4.22;;;2.65;;
51082;SDS011;37131;42.694;23.350;2023-08-20T02:24:03;4.20;;;2.22;;
51082;SDS011;37131;42.694;23.350;2023-08-20T02:26:29;4.93;;;2.60;;
51082;SDS011;37131;42.694;23.350;2023-08-20T02:28:54;7.32;;;2.80;;
51082;SDS011;37131;42.694;23.350;2023-08-20T02:31:20;6.70;;;2.53;;
51082;SDS011;37131;42.694;23.350;2023-08-20T02:33:45;6.22;;;3.03;;
51082;SDS011;37131;42.694;23.350;2023-08-20T02:36:10;6.78;;;2.70;;
51082;SDS011;37131;42.694;23.350;2023-08-20T02:38:36;4.15;;;2.53;;
51082;SDS011;37131;42.694;23.350;2023-08-20T02:41:01;4.63;;;2.50;;
51082;SDS011;37131;42.694;23.350;2023-08-20T02:43:28;4.68;;;2.53;;
51082;SDS011;37131;42.694;23.350;2023-08-20T02:45:54;6.25;;;2.97;;
51082;SDS011;37131;42.694;23.350;2023-08-20T02:48:19;4.07;;;2.78;;
51082;SDS011;37131;42.694;23.350;2023-08-20T02:50:44;5.70;;;2.65;;
51082;SDS011;37131;42.694;23.350;2023-08-20T02:53:10;4.43;;;2.30;;
51082;SDS011;37131;42.694;23.350;2023-08-20T02:55:35;4.80;;;2.53;;
51082;SDS011;37131;42.694;23.350;2023-08-20T02:58:01;4.88;;;2.40;;
51082;SDS011;37131;42.694;23.350;2023-08-20T03:00:28;5.53;;;2.78;;
51082;SDS011;37131;42.694;23.350;2023-08-20T03:02:54;5.15;;;2.63;;
51082;SDS011;37131;42.694;23.350;2023-08-20T03:05:20;4.60;;;2.47;;
51082;SDS011;37131;42.694;23.350;2023-08-20T03:07:45;5.53;;;2.40;;
51082;SDS011;37131;42.694;23.350;2023-08-20T03:10:10;6.28;;;3.10;;
51082;SDS011;37131;42.694;23.350;2023-08-20T03:12:36;5.45;;;2.63;;
51082;SDS011;37131;42.694;23.350;2023-08-20T03:15:02;8.40;;;2.58;;
51082;SDS011;37131;42.694;23.350;2023-08-20T03:17:28;8.32;;;3.17;;
51082;SDS011;37131;42.694;23.350;2023-08-20T03:19:57;4.93;;;2.78;;
51082;SDS011;37131;42.694;23.350;2023-08-20T03:22:24;6.50;;;2.80;;
51082;SDS011;37131;42.694;23.350;2023-08-20T03:24:50;6.25;;;2.97;;
51082;SDS011;37131;42.694;23.350;2023-08-20T03:27:16;5.13;;;2.67;;
51082;SDS011;37131;42.694;23.350;2023-08-20T03:29:42;5.32;;;2.80;;
51082;SDS011;37131;42.694;23.350;2023-08-20T03:32:08;4.68;;;2.65;;
51082;SDS011;37131;42.694;23.350;2023-08-20T03:34:33;6.20;;;3.20;;
51082;SDS011;37131;42.694;23.350;2023-08-20T03:36:59;5.85;;;2.65;;
51082;SDS011;37131;42.694;23.350;2023-08-20T03:39:24;6.55;;;2.97;;
51082;SDS011;37131;42.694;23.350;2023-08-20T03:41:50;6.60;;;3.25;;
51082;SDS011;37131;42.694;23.350;2023-08-20T03:44:15;6.45;;;2.83;;
51082;SDS011;37131;42.694;23.350;2023-08-20T03:46:41;4.95;;;2.58;;
51082;SDS011;37131;42.694;23.350;2023-08-20T03:49:06;6.78;;;3.08;;
51082;SDS011;37131;42.694;23.350;2023-08-20T03:51:32;4.55;;;2.80;;
51082;SDS011;37131;42.694;23.350;2023-08-20T03:53:57;4.65;;;2.58;;
51082;SDS011;37131;42.694;23.350;2023-08-20T03:56:23;4.43;;;2.78;;
51082;SDS011;37131;42.694;23.350;2023-08-20T03:58:48;4.40;;;2.60;;
51082;SDS011;37131;42.694;23.350;2023-08-20T04:01:13;5.32;;;2.83;;
51082;SDS011;37131;42.694;23.350;2023-08-20T04:03:39;4.30;;;2.50;;
51082;SDS011;37131;42.694;23.350;2023-08-20T04:06:04;4.80;;;2.72;;
51082;SDS011;37131;42.694;23.350;2023-08-20T04:08:29;5.25;;;2.67;;
51082;SDS011;37131;42.694;23.350;2023-08-20T04:10:55;5.47;;;2.53;;
51082;SDS011;37131;42.694;23.350;2023-08-20T04:13:20;6.82;;;3.03;;
51082;SDS011;37131;42.694;23.350;2023-08-20T04:15:46;7.53;;;2.60;;
51082;SDS011;37131;42.694;23.350;2023-08-20T04:18:11;6.30;;;3.20;;
51082;SDS011;37131;42.694;23.350;2023-08-20T04:20:37;5.45;;;2.80;;
51082;SDS011;37131;42.694;23.350;2023-08-20T04:23:02;6.57;;;2.60;;
51082;SDS011;37131;42.694;23.350;2023-08-20T04:25:28;4.03;;;2.40;;
51082;SDS011;37131;42.694;23.350;2023-08-20T04:27:53;6.15;;;3.00;;
51082;SDS011;37131;42.694;23.350;2023-08-20T04:30:18;5.22;;;2.60;;
51082;SDS011;37131;42.694;23.350;2023-08-20T04:32:44;6.93;;;2.70;;
51082;SDS011;37131;42.694;23.350;2023-08-20T04:35:10;7.43;;;3.22;;
51082;SDS011;37131;42.694;23.350;2023-08-20T04:37:35;5.70;;;2.75;;
51082;SDS011;37131;42.694;23.350;2023-08-20T04:40:01;6.38;;;2.72;;
51082;SDS011;37131;42.694;23.350;2023-08-20T04:42:29;6.70;;;2.97;;
51082;SDS011;37131;42.694;23.350;2023-08-20T04:44:55;4.68;;;2.78;;
51082;SDS011;37131;42.694;23.350;2023-08-20T04:47:20;6.38;;;2.85;;
51082;SDS011;37131;42.694;23.350;2023-08-20T04:49:45;5.97;;;2.63;;
51082;SDS011;37131;42.694;23.350;2023-08-20T04:52:11;5.88;;;2.75;;
51082;SDS011;37131;42.694;23.350;2023-08-20T04:54:36;6.57;;;2.88;;
51082;SDS011;37131;42.694;23.350;2023-08-20T04:57:02;5.32;;;2.90;;
51082;SDS011;37131;42.694;23.350;2023-08-20T04:59:27;6.40;;;3.00;;
51082;SDS011;37131;42.694;23.350;2023-08-20T05:01:53;8.18;;;3.05;;
51082;SDS011;37131;42.694;23.350;2023-08-20T05:04:18;6.03;;;2.92;;
51082;SDS011;37131;42.694;23.350;2023-08-20T05:06:43;6.25;;;3.35;;
51082;SDS011;37131;42.694;23.350;2023-08-20T05:09:09;8.38;;;3.58;;
51082;SDS011;37131;42.694;23.350;2023-08-20T05:11:34;6.00;;;3.20;;
51082;SDS011;37131;42.694;23.350;2023-08-20T05:14:00;7.18;;;3.13;;
51082;SDS011;37131;42.694;23.350;2023-08-20T05:16:25;9.75;;;2.97;;
51082;SDS011;37131;42.694;23.350;2023-08-20T05:18:50;5.93;;;3.20;;
51082;SDS011;37131;42.694;23.350;2023-08-20T05:21:16;7.70;;;3.40;;
51082;SDS011;37131;42.694;23.350;2023-08-20T05:23:41;8.82;;;4.55;;
51082;SDS011;37131;42.694;23.350;2023-08-20T05:26:07;7.45;;;4.45;;
51082;SDS011;37131;42.694;23.350;2023-08-20T05:28:33;11.75;;;4.20;;
51082;SDS011;37131;42.694;23.350;2023-08-20T05:30:59;10.98;;;4.53;;
51082;SDS011;37131;42.694;23.350;2023-08-20T05:33:24;7.47;;;3.92;;
51082;SDS011;37131;42.694;23.350;2023-08-20T05:35:50;10.18;;;3.90;;
51082;SDS011;37131;42.694;23.350;2023-08-20T05:38:15;8.90;;;3.55;;
51082;SDS011;37131;42.694;23.350;2023-08-20T05:40:41;8.10;;;3.67;;
51082;SDS011;37131;42.694;23.350;2023-08-20T05:43:07;6.50;;;3.20;;
51082;SDS011;37131;42.694;23.350;2023-08-20T05:45:33;5.70;;;2.90;;
51082;SDS011;37131;42.694;23.350;2023-08-20T05:47:58;6.90;;;3.33;;
51082;SDS011;37131;42.694;23.350;2023-08-20T05:50:23;7.03;;;3.03;;
51082;SDS011;37131;42.694;23.350;2023-08-20T05:52:49;8.20;;;3.10;;
51082;SDS011;37131;42.694;23.350;2023-08-20T05:55:14;8.55;;;3.00;;
51082;SDS011;37131;42.694;23.350;2023-08-20T05:57:40;5.55;;;3.00;;
51082;SDS011;37131;42.694;23.350;2023-08-20T06:00:08;7.25;;;3.22;;
51082;SDS011;37131;42.694;23.350;2023-08-20T06:02:34;6.63;;;3.20;;
51082;SDS011;37131;42.694;23.350;2023-08-20T06:04:59;6.10;;;3.10;;
51082;SDS011;37131;42.694;23.350;2023-08-20T06:07:25;7.85;;;2.80;;
51082;SDS011;37131;42.694;23.350;2023-08-20T06:09:50;6.50;;;2.90;;
51082;SDS011;37131;42.694;23.350;2023-08-20T06:12:18;7.18;;;3.22;;
51082;SDS011;37131;42.694;23.350;2023-08-20T06:14:44;7.35;;;3.10;;
51082;SDS011;37131;42.694;23.350;2023-08-20T06:17:10;4.75;;;3.05;;
51082;SDS011;37131;42.694;23.350;2023-08-20T06:19:35;4.80;;;3.00;;
51082;SDS011;37131;42.694;23.350;2023-08-20T06:22:01;6.43;;;3.13;;
51082;SDS011;37131;42.694;23.350;2023-08-20T06:24:26;6.10;;;2.85;;
51082;SDS011;37131;42.694;23.350;2023-08-20T06:26:51;4.45;;;2.67;;
51082;SDS011;37131;42.694;23.350;2023-08-20T06:29:17;4.72;;;2.60;;
51082;SDS011;37131;42.694;23.350;2023-08-20T06:31:43;6.93;;;2.70;;
51082;SDS011;37131;42.694;23.350;2023-08-20T06:34:09;6.13;;;2.78;;
51082;SDS011;37131;42.694;23.350;2023-08-20T06:36:34;10.05;;;3.70;;
51082;SDS011;37131;42.694;23.350;2023-08-20T06:39:00;6.95;;;3.10;;
51082;SDS011;37131;42.694;23.350;2023-08-20T06:41:26;5.32;;;3.03;;
51082;SDS011;37131;42.694;23.350;2023-08-20T06:43:51;5.53;;;2.72;;
51082;SDS011;37131;42.694;23.350;2023-08-20T06:46:17;5.63;;;2.95;;
51082;SDS011;37131;42.694;23.350;2023-08-20T06:48:42;6.05;;;2.97;;
51082;SDS011;37131;42.694;23.350;2023-08-20T06:51:14;5.30;;;2.90;;
51082;SDS011;37131;42.694;23.350;2023-08-20T06:53:42;6.35;;;3.03;;
51082;SDS011;37131;42.694;23.350;2023-08-20T06:56:08;6.25;;;3.50;;
51082;SDS011;37131;42.694;23.350;2023-08-20T06:58:34;4.50;;;2.50;;
51082;SDS011;37131;42.694;23.350;2023-08-20T07:01:00;4.32;;;2.80;;
51082;SDS011;37131;42.694;23.350;2023-08-20T07:03:39;6.47;;;2.90;;
51082;SDS011;37131;42.694;23.350;2023-08-20T07:06:05;4.47;;;2.72;;
51082;SDS011;37131;42.694;23.350;2023-08-20T07:08:31;4.03;;;2.63;;
51082;SDS011;37131;42.694;23.350;2023-08-20T07:10:57;4.63;;;2.58;;
51082;SDS011;37131;42.694;23.350;2023-08-20T07:13:23;4.05;;;2.47;;
51082;SDS011;37131;42.694;23.350;2023-08-20T07:15:48;3.90;;;2.53;;
51082;SDS011;37131;42.694;23.350;2023-08-20T07:18:14;4.88;;;2.60;;
51082;SDS011;37131;42.694;23.350;2023-08-20T07:20:41;5.07;;;3.00;;
51082;SDS011;37131;42.694;23.350;2023-08-20T07:23:07;4.78;;;2.83;;
51082;SDS011;37131;42.694;23.350;2023-08-20T07:25:35;3.28;;;2.33;;
51082;SDS011;37131;42.694;23.350;2023-08-20T07:28:02;4.50;;;2.72;;
51082;SDS011;37131;42.694;23.350;2023-08-20T07:30:28;4.00;;;2.33;;
51082;SDS011;37131;42.694;23.350;2023-08-20T07:32:54;7.43;;;2.67;;
51082;SDS011;37131;42.694;23.350;2023-08-20T07:35:20;3.88;;;2.10;;
51082;SDS011;37131;42.694;23.350;2023-08-20T07:37:45;4.05;;;2.40;;
51082;SDS011;37131;42.694;23.350;2023-08-20T07:40:12;5.13;;;2.30;;
51082;SDS011;37131;42.694;23.350;2023-08-20T07:42:38;2.75;;;1.77;;
51082;SDS011;37131;42.694;23.350;2023-08-20T07:45:05;3.33;;;1.90;;
51082;SDS011;37131;42.694;23.350;2023-08-20T07:47:30;3.80;;;1.85;;
51082;SDS011;37131;42.694;23.350;2023-08-20T07:49:56;3.78;;;1.77;;
51082;SDS011;37131;42.694;23.350;2023-08-20T07:52:21;4.18;;;1.80;;
51082;SDS011;37131;42.694;23.350;2023-08-20T07:54:47;3.15;;;1.80;;
51082;SDS011;37131;42.694;23.350;2023-08-20T07:57:12;3.78;;;2.08;;
51082;SDS011;37131;42.694;23.350;2023-08-20T07:59:37;3.10;;;1.63;;
51082;SDS011;37131;42.694;23.350;2023-08-20T08:02:03;3.95;;;1.85;;
51082;SDS011;37131;42.694;23.350;2023-08-20T08:04:28;2.83;;;1.67;;
51082;SDS011;37131;42.694;23.350;2023-08-20T08:06:54;3.20;;;1.95;;
51082;SDS011;37131;42.694;23.350;2023-08-20T08:09:21;3.63;;;1.95;;
51082;SDS011;37131;42.694;23.350;2023-08-20T08:11:51;5.07;;;2.67;;
51082;SDS011;37131;42.694;23.350;2023-08-20T08:14:17;5.88;;;2.05;;
51082;SDS011;37131;42.694;23.350;2023-08-20T08:16:44;3.13;;;2.00;;
51082;SDS011;37131;42.694;23.350;2023-08-20T08:19:10;3.65;;;1.77;;
51082;SDS011;37131;42.694;23.350;2023-08-20T08:21:36;3.13;;;1.70;;
51082;SDS011;37131;42.694;23.350;2023-08-20T08:24:01;2.17;;;1.70;;
51082;SDS011;37131;42.694;23.350;2023-08-20T08:26:27;2.10;;;1.33;;
51082;SDS011;37131;42.694;23.350;2023-08-20T08:28:53;4.40;;;1.70;;
51082;SDS011;37131;42.694;23.350;2023-08-20T08:31:18;6.63;;;1.70;;
51082;SDS011;37131;42.694;23.350;2023-08-20T08:33:44;3.15;;;1.63;;
51082;SDS011;37131;42.694;23.350;2023-08-20T08:36:09;3.20;;;1.88;;
51082;SDS011;37131;42.694;23.350;2023-08-20T08:38:36;3.67;;;1.80;;
51082;SDS011;37131;42.694;23.350;2023-08-20T08:41:02;3.72;;;1.88;;
51082;SDS011;37131;42.694;23.350;2023-08-20T08:43:28;3.70;;;1.35;;
51082;SDS011;37131;42.694;23.350;2023-08-20T08:45:56;3.30;;;1.55;;
51082;SDS011;37131;42.694;23.350;2023-08-20T08:48:22;2.30;;;1.60;;
51082;SDS011;37131;42.694;23.350;2023-08-20T08:50:50;5.22;;;1.80;;
51082;SDS011;37131;42.694;23.350;2023-08-20T08:53:17;2.55;;;1.70;;
51082;SDS011;37131;42.694;23.350;2023-08-20T08:55:43;1.98;;;1.30;;
51082;SDS011;37131;42.694;23.350;2023-08-20T08:58:08;2.55;;;1.30;;
51082;SDS011;37131;42.694;23.350;2023-08-20T09:00:34;4.93;;;1.40;;
51082;SDS011;37131;42.694;23.350;2023-08-20T09:02:59;2.55;;;1.50;;
51082;SDS011;37131;42.694;23.350;2023-08-20T09:05:24;4.47;;;1.58;;
51082;SDS011;37131;42.694;23.350;2023-08-20T09:07:56;1.95;;;1.27;;
51082;SDS011;37131;42.694;23.350;2023-08-20T09:10:25;3.08;;;1.63;;
51082;SDS011;37131;42.694;23.350;2023-08-20T09:12:51;2.83;;;1.50;;
51082;SDS011;37131;42.694;23.350;2023-08-20T09:15:21;2.55;;;1.52;;
51082;SDS011;37131;42.694;23.350;2023-08-20T09:17:54;1.52;;;1.15;;
51082;SDS011;37131;42.694;23.350;2023-08-20T09:20:33;2.45;;;1.40;;
51082;SDS011;37131;42.694;23.350;2023-08-20T09:22:59;1.73;;;1.13;;
51082;SDS011;37131;42.694;23.350;2023-08-20T09:25:24;2.28;;;1.20;;
51082;SDS011;37131;42.694;23.350;2023-08-20T09:27:50;3.15;;;1.20;;
51082;SDS011;37131;42.694;23.350;2023-08-20T09:30:17;4.25;;;1.58;;
51082;SDS011;37131;42.694;23.350;2023-08-20T09:32:45;2.45;;;1.25;;
51082;SDS011;37131;42.694;23.350;2023-08-20T09:35:17;1.92;;;1.10;;
51082;SDS011;37131;42.694;23.350;2023-08-20T09:37:43;3.33;;;1.30;;
51082;SDS011;37131;42.694;23.350;2023-08-20T09:40:09;3.50;;;1.23;;
51082;SDS011;37131;42.694;23.350;2023-08-20T09:42:35;2.10;;;1.27;;
51082;SDS011;37131;42.694;23.350;2023-08-20T09:45:01;2.70;;;1.20;;
51082;SDS011;37131;42.694;23.350;2023-08-20T09:47:28;2.03;;;1.30;;
51082;SDS011;37131;42.694;23.350;2023-08-20T09:49:56;2.30;;;1.10;;
51082;SDS011;37131;42.694;23.350;2023-08-20T09:52:27;1.52;;;1.00;;
51082;SDS011;37131;42.694;23.350;2023-08-20T09:55:00;1.35;;;1.02;;
51082;SDS011;37131;42.694;23.350;2023-08-20T09:57:36;2.30;;;1.20;;
51082;SDS011;37131;42.694;23.350;2023-08-20T10:00:03;1.50;;;0.90;;
51082;SDS011;37131;42.694;23.350;2023-08-20T10:02:34;3.60;;;0.90;;
51082;SDS011;37131;42.694;23.350;2023-08-20T10:05:00;1.58;;;0.88;;
51082;SDS011;37131;42.694;23.350;2023-08-20T10:07:28;3.88;;;1.20;;
51082;SDS011;37131;42.694;23.350;2023-08-20T10:09:56;1.40;;;0.80;;
51082;SDS011;37131;42.694;23.350;2023-08-20T10:12:25;1.60;;;0.90;;
51082;SDS011;37131;42.694;23.350;2023-08-20T10:14:52;1.77;;;1.00;;
51082;SDS011;37131;42.694;23.350;2023-08-20T10:17:18;1.95;;;0.85;;
51082;SDS011;37131;42.694;23.350;2023-08-20T10:19:43;1.60;;;0.85;;
51082;SDS011;37131;42.694;23.350;2023-08-20T10:22:08;1.52;;;1.00;;
51082;SDS011;37131;42.694;23.350;2023-08-20T10:24:41;1.40;;;0.80;;
51082;SDS011;37131;42.694;23.350;2023-08-20T10:27:12;1.40;;;0.80;;
51082;SDS011;37131;42.694;23.350;2023-08-20T10:29:38;4.40;;;1.02;;
51082;SDS011;37131;42.694;23.350;2023-08-20T10:32:09;2.30;;;0.80;;
51082;SDS011;37131;42.694;23.350;2023-08-20T10:34:36;1.63;;;1.00;;
51082;SDS011;37131;42.694;23.350;2023-08-20T10:37:10;2.95;;;1.00;;
51082;SDS011;37131;42.694;23.350;2023-08-20T10:39:37;1.88;;;0.90;;
51082;SDS011;37131;42.694;23.350;2023-08-20T10:42:09;1.58;;;0.90;;
51082;SDS011;37131;42.694;23.350;2023-08-20T10:47:25;2.30;;;1.00;;
51082;SDS011;37131;42.694;23.350;2023-08-20T10:49:59;1.50;;;0.80;;
51082;SDS011;37131;42.694;23.350;2023-08-20T10:52:25;2.90;;;1.13;;
51082;SDS011;37131;42.694;23.350;2023-08-20T10:54:51;1.92;;;0.77;;
51082;SDS011;37131;42.694;23.350;2023-08-20T10:57:17;1.63;;;0.93;;
51082;SDS011;37131;42.694;23.350;2023-08-20T10:59:50;1.65;;;1.00;;
51082;SDS011;37131;42.694;23.350;2023-08-20T11:02:22;3.47;;;1.00;;
51082;SDS011;37131;42.694;23.350;2023-08-20T11:04:48;2.63;;;1.15;;
51082;SDS011;37131;42.694;23.350;2023-08-20T11:07:14;1.40;;;0.82;;
51082;SDS011;37131;42.694;23.350;2023-08-20T11:09:42;2.78;;;1.02;;
51082;SDS011;37131;42.694;23.350;2023-08-20T11:12:09;2.13;;;1.17;;
51082;SDS011;37131;42.694;23.350;2023-08-20T11:14:35;1.75;;;0.88;;
51082;SDS011;37131;42.694;23.350;2023-08-20T11:17:00;2.17;;;0.93;;
51082;SDS011;37131;42.694;23.350;2023-08-20T11:19:26;1.65;;;0.88;;
51082;SDS011;37131;42.694;23.350;2023-08-20T11:21:53;1.48;;;0.95;;
51082;SDS011;37131;42.694;23.350;2023-08-20T11:24:19;1.60;;;0.70;;
51082;SDS011;37131;42.694;23.350;2023-08-20T11:26:45;1.45;;;1.00;;
51082;SDS011;37131;42.694;23.350;2023-08-20T11:29:12;1.40;;;0.80;;
51082;SDS011;37131;42.694;23.350;2023-08-20T11:31:39;3.15;;;1.13;;
51082;SDS011;37131;42.694;23.350;2023-08-20T11:34:05;1.25;;;0.73;;
51082;SDS011;37131;42.694;23.350;2023-08-20T11:36:31;1.50;;;0.90;;
51082;SDS011;37131;42.694;23.350;2023-08-20T11:38:57;1.55;;;0.98;;
51082;SDS011;37131;42.694;23.350;2023-08-20T11:41:23;2.90;;;1.15;;
51082;SDS011;37131;42.694;23.350;2023-08-20T11:43:50;1.75;;;1.20;;
51082;SDS011;37131;42.694;23.350;2023-08-20T11:46:18;1.48;;;1.00;;
51082;SDS011;37131;42.694;23.350;2023-08-20T11:49:01;1.63;;;1.10;;
51082;SDS011;37131;42.694;23.350;2023-08-20T11:51:28;2.33;;;0.88;;
51082;SDS011;37131;42.694;23.350;2023-08-20T11:53:53;1.50;;;0.82;;
51082;SDS011;37131;42.694;23.350;2023-08-20T11:56:19;1.65;;;1.10;;
51082;SDS011;37131;42.694;23.350;2023-08-20T11:58:49;2.72;;;1.25;;
51082;SDS011;37131;42.694;23.350;2023-08-20T12:01:17;2.03;;;1.10;;
51082;SDS011;37131;42.694;23.350;2023-08-20T12:03:45;1.88;;;1.02;;
51082;SDS011;37131;42.694;23.350;2023-08-20T12:06:20;1.83;;;1.00;;
51082;SDS011;37131;42.694;23.350;2023-08-20T12:08:53;2.75;;;1.20;;
51082;SDS011;37131;42.694;23.350;2023-08-20T12:11:19;1.73;;;1.02;;
51082;SDS011;37131;42.694;23.350;2023-08-20T12:13:49;1.85;;;1.10;;
51082;SDS011;37131;42.694;23.350;2023-08-20T12:16:14;2.22;;;1.20;;
51082;SDS011;37131;42.694;23.350;2023-08-20T12:18:39;3.03;;;1.13;;
51082;SDS011;37131;42.694;23.350;2023-08-20T12:21:05;1.60;;;1.05;;
51082;SDS011;37131;42.694;23.350;2023-08-20T12:23:30;2.22;;;1.10;;
51082;SDS011;37131;42.694;23.350;2023-08-20T12:25:56;2.22;;;0.95;;
51082;SDS011;37131;42.694;23.350;2023-08-20T12:28:21;2.42;;;1.10;;
51082;SDS011;37131;42.694;23.350;2023-08-20T12:30:47;4.68;;;1.17;;
51082;SDS011;37131;42.694;23.350;2023-08-20T12:33:12;1.10;;;0.77;;
51082;SDS011;37131;42.694;23.350;2023-08-20T12:35:38;1.70;;;1.10;;
51082;SDS011;37131;42.694;23.350;2023-08-20T12:38:03;1.55;;;1.00;;
51082;SDS011;37131;42.694;23.350;2023-08-20T12:40:31;2.28;;;1.15;;
51082;SDS011;37131;42.694;23.350;2023-08-20T12:42:56;2.50;;;1.02;;
51082;SDS011;37131;42.694;23.350;2023-08-20T12:45:21;1.85;;;1.05;;
51082;SDS011;37131;42.694;23.350;2023-08-20T12:47:47;1.48;;;1.00;;
51082;SDS011;37131;42.694;23.350;2023-08-20T12:50:13;2.28;;;1.05;;
51082;SDS011;37131;42.694;23.350;2023-08-20T12:52:39;2.47;;;1.00;;
51082;SDS011;37131;42.694;23.350;2023-08-20T12:55:05;1.80;;;1.00;;
51082;SDS011;37131;42.694;23.350;2023-08-20T12:57:30;1.20;;;0.80;;
51082;SDS011;37131;42.694;23.350;2023-08-20T12:59:58;1.85;;;1.05;;
51082;SDS011;37131;42.694;23.350;2023-08-20T13:02:24;2.30;;;1.02;;
51082;SDS011;37131;42.694;23.350;2023-08-20T13:04:50;3.03;;;1.23;;
51082;SDS011;37131;42.694;23.350;2023-08-20T13:07:15;1.98;;;1.13;;
51082;SDS011;37131;42.694;23.350;2023-08-20T13:09:41;2.33;;;1.10;;
51082;SDS011;37131;42.694;23.350;2023-08-20T13:12:07;1.77;;;1.17;;
51082;SDS011;37131;42.694;23.350;2023-08-20T13:14:37;1.35;;;0.90;;
51082;SDS011;37131;42.694;23.350;2023-08-20T13:17:04;2.08;;;0.95;;
51082;SDS011;37131;42.694;23.350;2023-08-20T13:19:30;1.30;;;0.90;;
51082;SDS011;37131;42.694;23.350;2023-08-20T13:21:55;1.38;;;0.90;;
51082;SDS011;37131;42.694;23.350;2023-08-20T13:24:20;2.60;;;1.05;;
51082;SDS011;37131;42.694;23.350;2023-08-20T13:26:46;2.67;;;1.05;;
51082;SDS011;37131;42.694;23.350;2023-08-20T13:29:11;1.35;;;0.90;;
51082;SDS011;37131;42.694;23.350;2023-08-20T13:31:37;1.67;;;1.00;;
51082;SDS011;37131;42.694;23.350;2023-08-20T13:34:02;3.42;;;0.93;;
51082;SDS011;37131;42.694;23.350;2023-08-20T13:36:28;1.20;;;0.80;;
51082;SDS011;37131;42.694;23.350;2023-08-20T13:38:55;1.75;;;0.93;;
51082;SDS011;37131;42.694;23.350;2023-08-20T13:41:20;1.23;;;0.90;;
51082;SDS011;37131;42.694;23.350;2023-08-20T13:43:45;2.17;;;0.90;;
51082;SDS011;37131;42.694;23.350;2023-08-20T13:46:11;3.00;;;0.95;;
51082;SDS011;37131;42.694;23.350;2023-08-20T13:48:36;4.30;;;1.05;;
51082;SDS011;37131;42.694;23.350;2023-08-20T13:51:01;2.85;;;1.00;;
51082;SDS011;37131;42.694;23.350;2023-08-20T13:53:27;4.25;;;0.95;;
51082;SDS011;37131;42.694;23.350;2023-08-20T13:55:52;1.27;;;0.90;;
51082;SDS011;37131;42.694;23.350;2023-08-20T13:58:20;2.80;;;0.90;;
51082;SDS011;37131;42.694;23.350;2023-08-20T14:00:45;1.80;;;1.02;;
51082;SDS011;37131;42.694;23.350;2023-08-20T14:03:11;2.20;;;1.20;;
51082;SDS011;37131;42.694;23.350;2023-08-20T14:05:36;2.05;;;1.08;;
51082;SDS011;37131;42.694;23.350;2023-08-20T14:08:02;1.30;;;0.95;;
51082;SDS011;37131;42.694;23.350;2023-08-20T14:10:28;1.73;;;1.17;;
51082;SDS011;37131;42.694;23.350;2023-08-20T14:12:53;2.42;;;1.20;;
51082;SDS011;37131;42.694;23.350;2023-08-20T14:15:18;1.73;;;0.90;;
51082;SDS011;37131;42.694;23.350;2023-08-20T14:17:44;3.88;;;1.17;;
51082;SDS011;37131;42.694;23.350;2023-08-20T14:20:10;1.30;;;0.80;;
51082;SDS011;37131;42.694;23.350;2023-08-20T14:22:36;2.10;;;1.00;;
51082;SDS011;37131;42.694;23.350;2023-08-20T14:25:02;1.35;;;1.00;;
51082;SDS011;37131;42.694;23.350;2023-08-20T14:27:28;3.38;;;1.13;;
51082;SDS011;37131;42.694;23.350;2023-08-20T14:29:54;1.27;;;0.80;;
51082;SDS011;37131;42.694;23.350;2023-08-20T14:32:19;1.48;;;0.98;;
51082;SDS011;37131;42.694;23.350;2023-08-20T14:34:45;1.63;;;0.90;;
51082;SDS011;37131;42.694;23.350;2023-08-20T14:37:10;1.83;;;0.90;;
51082;SDS011;37131;42.694;23.350;2023-08-20T14:39:38;1.63;;;1.20;;
51082;SDS011;37131;42.694;23.350;2023-08-20T14:42:03;1.70;;;1.00;;
51082;SDS011;37131;42.694;23.350;2023-08-20T14:44:29;2.25;;;1.00;;